KTTN/TTN METAR and TAF weather

Enter ICAO airport designator
Station Type Date Time Source
KTTN METAR 2019/12/07 04:53 UTC NOAA

KTTN 070453Z AUTO 33010G19KT 10SM CLR 03/M04 A3016 RMK AO2 SLP210 T00331044 400891011


Station Type Date Time Source
KTTN Decoded METAR 2019/12/07 04:53 UTC NOAA

TRENTON MERCER COUNTY AIRPORT , NJ, United States (KTTN) 40-17N 074-49W 59M
Dec 06, 2019 - 11:53 PM EST / 2019.12.07 0453 UTC
Wind: from the NNW (330 degrees) at 12 MPH (10 KT) gusting to 22 MPH (19 KT):0
Visibility: 10 mile(s):0
Sky conditions: clear
Temperature: 37.9 F (3.3 C)
Dew Point: 24.1 F (-4.4 C)
Relative Humidity: 56%
Pressure (altimeter): 30.16 in. Hg (1021 hPa)
ob: KTTN 070453Z AUTO 33010G19KT 10SM CLR 03/M04 A3016 RMK AO2 SLP210 T00331044 400891011
cycle: 5

Station Type Date Time Source
KTTN TAF 2019/12/07 02:58 UTC NOAA

TAF
AMD KTTN 070158Z 0702/0724 33010KT P6SM BKN070
TEMPO 0702/0704 33010G20KT
FM070400 33009KT P6SM SCT250

Example: see airport list